createdAt,value
2023-02-02T00:01:52.943Z,99666.47
2023-02-02T00:04:23.817Z,99665.78
2023-02-02T00:06:51.605Z,99661.88
2023-02-02T00:09:26.192Z,99662.06
2023-02-02T00:11:56.032Z,99664.75
2023-02-02T00:14:25.024Z,99672.06
2023-02-02T00:17:05.037Z,99659.28
2023-02-02T00:19:34.627Z,99668.25
2023-02-02T00:22:02.762Z,99671.84
2023-02-02T00:24:30.587Z,99659.44
2023-02-02T00:27:01.151Z,99641.44
2023-02-02T00:29:31.610Z,99637.91
2023-02-02T00:32:01.186Z,99639.28
2023-02-02T00:34:29.849Z,99633.69
2023-02-02T00:36:57.835Z,99630.03
2023-02-02T00:39:26.479Z,99626.78
2023-02-02T00:41:55.288Z,99627.78
2023-02-02T00:44:42.369Z,99633.06
2023-02-02T00:47:10.137Z,99631.22
2023-02-02T00:49:37.593Z,99636.22
2023-02-02T00:52:07.479Z,99659.09
2023-02-02T00:54:35.561Z,99663.88
2023-02-02T00:57:04.676Z,99659.63
2023-02-02T00:59:34.777Z,99662.69
2023-02-02T01:02:02.902Z,99682.19
2023-02-02T01:04:30.987Z,99682.97
2023-02-02T01:06:59.411Z,99682.41
2023-02-02T01:09:27.810Z,99682.91
2023-02-02T01:11:55.908Z,99683.97
2023-02-02T01:14:23.663Z,99685.38
2023-02-02T01:16:51.680Z,99689.94
2023-02-02T01:19:19.326Z,99685.78
2023-02-02T01:21:47.848Z,99675.19
2023-02-02T01:24:17.387Z,99687.31
2023-02-02T01:26:46.624Z,99694.47
2023-02-02T01:29:15.764Z,99688.69
2023-02-02T01:31:44.173Z,99697.34
2023-02-02T01:34:13.959Z,99695.38
2023-02-02T01:36:42.421Z,99698.41
2023-02-02T01:39:11.092Z,99700.41
2023-02-02T01:41:41.070Z,99710.78
2023-02-02T01:44:47.047Z,99707.16
2023-02-02T01:47:15.228Z,99706.66
2023-02-02T01:49:43.195Z,99683.97
2023-02-02T01:52:11.930Z,99667.56
2023-02-02T01:54:47.061Z,99678.56
2023-02-02T01:57:24.304Z,99680.28
2023-02-02T01:59:53.431Z,99683.66
2023-02-02T02:02:21.464Z,99668.34
2023-02-02T02:04:50.688Z,99656.81
2023-02-02T02:07:19.199Z,99662.31
2023-02-02T02:09:47.778Z,99640.16
2023-02-02T02:12:16.812Z,99646.41
2023-02-02T02:15:08.420Z,99643.81
2023-02-02T02:17:55.172Z,99638.41
2023-02-02T02:21:01.047Z,99642.78
2023-02-02T02:24:13.579Z,99641.22
2023-02-02T02:26:51.816Z,99641.28
2023-02-02T02:29:35.818Z,99630.22
2023-02-02T02:32:29.069Z,99634.34
2023-02-02T02:35:26.282Z,99659.69
2023-02-02T02:38:16.501Z,99652.56
2023-02-02T02:40:48.286Z,99660.22
2023-02-02T02:43:20.586Z,99657.72
2023-02-02T02:45:50.054Z,99663.50
2023-02-02T02:48:28.145Z,99666.19
2023-02-02T02:51:06.916Z,99658.25
2023-02-02T02:53:37.166Z,99652.34
2023-02-02T02:56:48.173Z,99670.66
2023-02-02T02:59:23.612Z,99663.44
2023-02-02T03:01:58.118Z,99656.75
2023-02-02T03:04:44.274Z,99658.13
2023-02-02T03:07:26.704Z,99654.81
2023-02-02T03:09:56.534Z,99660.06
2023-02-02T03:12:24.677Z,99647.12
2023-02-02T03:14:54.069Z,99645.31
2023-02-02T03:17:29.202Z,99649.87
2023-02-02T03:19:58.424Z,99656.88
2023-02-02T03:22:26.360Z,99659.25
2023-02-02T03:24:54.290Z,99665.53
2023-02-02T03:27:22.077Z,99674.94
2023-02-02T03:29:49.834Z,99683.53
2023-02-02T03:32:17.761Z,99678.25
2023-02-02T03:34:45.415Z,99678.28
2023-02-02T03:37:13.638Z,99672.50
2023-02-02T03:39:41.218Z,99680.37
2023-02-02T03:42:09.515Z,99678.19
2023-02-02T03:44:39.326Z,99688.59
2023-02-02T03:47:07.476Z,99686.44
2023-02-02T03:49:36.038Z,99692.91
2023-02-02T03:52:08.077Z,99686.97
2023-02-02T03:54:36.191Z,99694.94
2023-02-02T03:57:04.438Z,99688.81
2023-02-02T03:59:32.550Z,99679.56
2023-02-02T04:02:00.583Z,99674.75
2023-02-02T04:04:36.223Z,99666.37
2023-02-02T04:07:04.012Z,99677.06
2023-02-02T04:09:31.774Z,99674.03
2023-02-02T04:11:59.932Z,99671.25
2023-02-02T04:14:29.100Z,99660.34
2023-02-02T04:16:57.247Z,99665.87
2023-02-02T04:19:27.404Z,99666.81
2023-02-02T04:21:56.524Z,99655.94
2023-02-02T04:24:24.528Z,99659.09
2023-02-02T04:26:54.553Z,99663.88
2023-02-02T04:29:23.008Z,99666.88
2023-02-02T04:31:51.903Z,99664.53
2023-02-02T04:34:20.458Z,99664.72
2023-02-02T04:36:48.379Z,99661.78
2023-02-02T04:39:17.276Z,99661.78
2023-02-02T04:41:45.233Z,99649.03
2023-02-02T04:44:15.888Z,99641.69
2023-02-02T04:46:44.986Z,99646.00
2023-02-02T04:49:12.959Z,99641.63
2023-02-02T04:51:42.305Z,99640.06
2023-02-02T04:54:12.063Z,99636.19
2023-02-02T04:56:45.996Z,99624.88
2023-02-02T04:59:17.802Z,99621.09
2023-02-02T05:01:48.860Z,99628.06
2023-02-02T05:04:24.353Z,99630.50
2023-02-02T05:06:55.473Z,99622.44
2023-02-02T05:09:24.322Z,99631.81
2023-02-02T05:11:52.641Z,99630.16
2023-02-02T05:14:21.443Z,99630.78
2023-02-02T05:16:50.598Z,99625.53
2023-02-02T05:19:20.432Z,99625.28
2023-02-02T05:21:54.904Z,99620.50
2023-02-02T05:24:25.387Z,99620.19
2023-02-02T05:26:58.629Z,99625.47
2023-02-02T05:29:29.046Z,99633.56
2023-02-02T05:31:57.804Z,99636.19
2023-02-02T05:34:26.560Z,99628.03
2023-02-02T05:36:57.120Z,99641.72
2023-02-02T05:39:27.555Z,99653.09
2023-02-02T05:41:58.837Z,99641.41
2023-02-02T05:44:27.889Z,99656.38
2023-02-02T05:46:58.526Z,99646.59
2023-02-02T05:49:30.520Z,99652.00
2023-02-02T05:52:09.274Z,99661.41
2023-02-02T05:54:38.167Z,99658.59
2023-02-02T05:57:06.637Z,99661.41
2023-02-02T05:59:36.047Z,99667.63
2023-02-02T06:02:07.754Z,99660.94
2023-02-02T06:04:36.037Z,99655.88
2023-02-02T06:07:06.160Z,99659.75
2023-02-02T06:09:35.269Z,99647.94
2023-02-02T06:12:06.298Z,99668.09
2023-02-02T06:14:37.326Z,99667.53
2023-02-02T06:17:07.178Z,99683.41
2023-02-02T06:19:44.595Z,99694.63
2023-02-02T06:22:12.770Z,99710.72
2023-02-02T06:24:44.888Z,99712.31
2023-02-02T06:27:14.012Z,99718.28
2023-02-02T06:29:44.077Z,99715.47
2023-02-02T06:32:15.745Z,99723.34
2023-02-02T06:34:50.183Z,99724.94
2023-02-02T06:37:19.032Z,99729.59
2023-02-02T06:39:47.284Z,99724.28
2023-02-02T06:42:21.743Z,99735.75
2023-02-02T06:44:50.143Z,99730.31
2023-02-02T06:47:20.058Z,99723.75
2023-02-02T06:49:52.075Z,99730.06
2023-02-02T06:52:20.474Z,99724.34
2023-02-02T06:54:51.999Z,99737.88
2023-02-02T06:57:22.030Z,99747.19
2023-02-02T06:59:59.067Z,99760.94
2023-02-02T07:02:29.926Z,99759.50
2023-02-02T07:04:58.373Z,99766.50
2023-02-02T07:07:26.702Z,99765.03
2023-02-02T07:09:58.304Z,99765.78
2023-02-02T07:12:37.124Z,99753.75
2023-02-02T07:15:09.026Z,99753.81
2023-02-02T07:17:49.345Z,99758.06
2023-02-02T07:20:18.960Z,99746.44
2023-02-02T07:22:51.276Z,99749.34
2023-02-02T07:25:22.475Z,99750.88
2023-02-02T07:27:55.998Z,99739.09
2023-02-02T07:30:30.200Z,99741.91
2023-02-02T07:32:59.426Z,99740.53
2023-02-02T07:35:35.510Z,99738.53
2023-02-02T07:38:06.080Z,99742.09
2023-02-02T07:40:34.780Z,99738.25
2023-02-02T07:43:09.664Z,99747.59
2023-02-02T07:45:38.426Z,99748.91
2023-02-02T07:48:11.332Z,99734.66
2023-02-02T07:50:39.901Z,99751.06
2023-02-02T07:53:11.163Z,99764.37
2023-02-02T07:55:43.283Z,99761.75
2023-02-02T07:58:16.273Z,99765.34
2023-02-02T08:00:46.147Z,99766.63
2023-02-02T08:03:15.442Z,99776.34
2023-02-02T08:05:45.709Z,99782.44
2023-02-02T08:08:17.469Z,99778.78
2023-02-02T08:10:51.599Z,99781.16
2023-02-02T08:13:26.335Z,99787.28
2023-02-02T08:15:58.559Z,99782.66
2023-02-02T08:18:31.139Z,99787.50
2023-02-02T08:21:04.163Z,99785.41
2023-02-02T08:23:34.163Z,99795.00
2023-02-02T08:26:18.137Z,99795.06
2023-02-02T08:28:59.566Z,99789.34
2023-02-02T08:34:11.065Z,99788.50
2023-02-02T08:36:48.356Z,99799.22
2023-02-02T08:39:18.178Z,99802.13
2023-02-02T08:41:51.641Z,99793.97
2023-02-02T08:44:42.887Z,99780.56
2023-02-02T08:47:23.340Z,99774.53
2023-02-02T08:49:52.648Z,99772.25
2023-02-02T08:52:24.233Z,99775.88
2023-02-02T08:54:57.398Z,99772.13
2023-02-02T08:57:34.214Z,99765.56
2023-02-02T09:00:12.100Z,99783.91
2023-02-02T09:02:40.222Z,99784.03
2023-02-02T09:05:09.295Z,99783.75
2023-02-02T09:07:47.288Z,99778.72
2023-02-02T09:10:25.071Z,99792.16
2023-02-02T09:12:55.424Z,99787.34
2023-02-02T09:15:24.986Z,99778.50
2023-02-02T09:17:54.674Z,99791.66
2023-02-02T09:20:25.280Z,99773.13
2023-02-02T09:22:58.449Z,99789.16
2023-02-02T09:25:28.440Z,99779.06
2023-02-02T09:27:56.983Z,99790.53
2023-02-02T09:30:27.152Z,99778.00
2023-02-02T09:32:55.579Z,99792.53
2023-02-02T09:35:29.448Z,99788.31
2023-02-02T09:37:59.488Z,99779.13
2023-02-02T09:40:30.752Z,99776.59
2023-02-02T09:43:40.377Z,99780.13
2023-02-02T09:46:44.103Z,99778.66
2023-02-02T09:49:23.474Z,99791.75
2023-02-02T09:51:57.310Z,99806.00
2023-02-02T09:54:38.214Z,99800.38
2023-02-02T09:57:25.078Z,99803.13
2023-02-02T09:59:55.755Z,99812.03
2023-02-02T10:02:24.059Z,99814.94
2023-02-02T10:04:56.061Z,99813.66
2023-02-02T10:07:36.349Z,99822.56
2023-02-02T10:10:30.074Z,99816.88
2023-02-02T10:13:43.777Z,99833.19
2023-02-02T10:16:21.960Z,99840.78
2023-02-02T10:19:07.521Z,99845.78
2023-02-02T10:22:05.089Z,99837.72
2023-02-02T10:24:36.209Z,99845.62
2023-02-02T10:27:10.520Z,99844.25
2023-02-02T10:29:49.332Z,99839.66
2023-02-02T10:32:35.034Z,99842.94
2023-02-02T10:35:30.150Z,99834.53
2023-02-02T10:38:10.625Z,99830.50
2023-02-02T10:40:56.297Z,99831.06
2023-02-02T10:43:49.024Z,99832.09
2023-02-02T10:46:26.343Z,99838.75
2023-02-02T10:49:28.236Z,99842.63
2023-02-02T10:52:11.216Z,99836.69
2023-02-02T10:55:00.007Z,99835.31
2023-02-02T10:57:46.411Z,99831.97
2023-02-02T11:00:34.933Z,99835.63
2023-02-02T11:03:05.155Z,99828.22
2023-02-02T11:05:54.041Z,99825.16
2023-02-02T11:08:49.155Z,99826.19
2023-02-02T11:11:25.097Z,99838.38
2023-02-02T11:14:09.490Z,99834.22
2023-02-02T11:16:43.696Z,99832.19
2023-02-02T11:22:07.231Z,99827.34
2023-02-02T11:24:50.914Z,99831.84
2023-02-02T11:30:36.854Z,99830.22
2023-02-02T11:33:23.249Z,99843.56
2023-02-02T11:36:02.090Z,99826.16
2023-02-02T11:38:39.521Z,99834.53
2023-02-02T11:41:16.089Z,99838.28
2023-02-02T11:43:55.407Z,99820.88
2023-02-02T11:46:31.224Z,99828.00
2023-02-02T11:49:12.362Z,99820.41
2023-02-02T11:51:40.180Z,99813.97
2023-02-02T11:54:22.538Z,99816.88
2023-02-02T11:56:57.232Z,99822.91
2023-02-02T11:59:38.090Z,99819.25
2023-02-02T12:02:29.007Z,99827.97
2023-02-02T12:05:11.110Z,99820.44
2023-02-02T12:07:44.139Z,99823.53
2023-02-02T12:10:16.242Z,99823.25
2023-02-02T12:16:30.098Z,99814.25
2023-02-02T12:19:20.860Z,99815.28
2023-02-02T12:22:18.381Z,99811.94
2023-02-02T12:25:07.644Z,99806.19
2023-02-02T12:27:45.755Z,99812.69
2023-02-02T12:30:41.186Z,99809.75
2023-02-02T12:33:33.891Z,99816.13
2023-02-02T12:36:47.228Z,99819.00
2023-02-02T12:39:55.500Z,99812.59
2023-02-02T12:42:48.301Z,99816.13
2023-02-02T12:45:39.761Z,99806.94
2023-02-02T12:48:39.511Z,99811.34
2023-02-02T12:51:39.173Z,99820.78
2023-02-02T12:54:33.434Z,99811.84
2023-02-02T12:57:40.859Z,99814.91
2023-02-02T13:00:36.091Z,99811.47
2023-02-02T13:03:34.037Z,99823.72
2023-02-02T13:06:49.240Z,99813.50
2023-02-02T13:10:04.136Z,99818.72
2023-02-02T13:12:44.601Z,99819.56
2023-02-02T13:15:19.266Z,99823.25
2023-02-02T13:17:59.067Z,99823.41
2023-02-02T13:20:51.099Z,99826.09
2023-02-02T13:23:34.394Z,99839.31
2023-02-02T13:26:16.316Z,99829.16
2023-02-02T13:29:02.865Z,99830.56
2023-02-02T13:31:53.205Z,99830.63
2023-02-02T13:34:29.478Z,99836.78
2023-02-02T13:39:57.992Z,99830.56
2023-02-02T13:42:55.718Z,99834.81
2023-02-02T13:45:58.089Z,99825.69
2023-02-02T13:48:30.985Z,99830.16
2023-02-02T13:51:14.461Z,99829.06
2023-02-02T13:54:12.713Z,99822.69
2023-02-02T14:00:20.045Z,99817.53
2023-02-02T14:02:54.091Z,99818.69
2023-02-02T14:05:40.788Z,99822.28
2023-02-02T14:08:12.468Z,99816.97
2023-02-02T14:11:02.955Z,99824.19
2023-02-02T14:19:41.566Z,99829.62
2023-02-02T14:22:16.024Z,99827.84
2023-02-02T14:24:56.057Z,99837.56
2023-02-02T14:27:31.772Z,99835.06
2023-02-02T14:30:04.964Z,99834.91
2023-02-02T14:32:47.009Z,99845.09
2023-02-02T14:38:10.002Z,99841.22
2023-02-02T14:40:58.513Z,99845.16
2023-02-02T14:43:46.367Z,99840.31
2023-02-02T14:46:17.286Z,99844.19
2023-02-02T14:49:01.019Z,99832.81
2023-02-02T14:51:31.936Z,99837.28
2023-02-02T14:54:08.011Z,99833.16
2023-02-02T15:02:25.377Z,99824.44
2023-02-02T15:08:27.304Z,99828.00
2023-02-02T15:11:28.130Z,99820.69
2023-02-02T15:14:07.431Z,99841.44
2023-02-02T15:16:38.936Z,99844.12
2023-02-02T15:19:32.017Z,99839.78
2023-02-02T15:22:30.001Z,99829.53
2023-02-02T15:25:12.197Z,99845.84
2023-02-02T15:27:57.057Z,99842.75
2023-02-02T15:30:38.081Z,99856.47
2023-02-02T15:33:42.395Z,99859.13
2023-02-02T15:36:31.993Z,99862.31
2023-02-02T15:39:11.712Z,99871.66
2023-02-02T15:41:45.819Z,99873.28
2023-02-02T15:44:21.359Z,99884.50
2023-02-02T15:46:53.024Z,99878.81
2023-02-02T15:49:36.030Z,99895.00
2023-02-02T15:52:18.947Z,99888.97
2023-02-02T15:57:38.091Z,99910.28
2023-02-02T16:00:29.910Z,99903.31
2023-02-02T16:03:19.158Z,99912.41
2023-02-02T16:06:00.161Z,99911.28
2023-02-02T16:08:40.083Z,99915.53
2023-02-02T16:11:26.652Z,99921.06
2023-02-02T16:14:12.984Z,99918.59
2023-02-02T16:16:53.907Z,99921.75
2023-02-02T16:19:47.269Z,99928.41
2023-02-02T16:25:17.069Z,99916.94
2023-02-02T16:27:48.049Z,99933.16
2023-02-02T16:30:37.018Z,99946.22
2023-02-02T16:33:43.877Z,99945.19
2023-02-02T16:36:30.888Z,99940.22
2023-02-02T16:39:09.004Z,99938.69
2023-02-02T16:41:54.984Z,99934.88
2023-02-02T16:44:38.851Z,99929.72
2023-02-02T16:47:30.632Z,99945.78
2023-02-02T16:52:56.234Z,99956.06
2023-02-02T16:55:47.555Z,99970.22
2023-02-02T16:58:24.605Z,99972.09
2023-02-02T17:01:15.478Z,99993.00
2023-02-02T17:04:00.333Z,99993.50
2023-02-02T17:06:45.734Z,100007.34
2023-02-02T17:12:34.953Z,100021.38
2023-02-02T17:15:34.545Z,100032.53
2023-02-02T17:18:10.784Z,100033.56
2023-02-02T17:20:47.123Z,100042.62
2023-02-02T17:23:30.037Z,100045.00
2023-02-02T17:26:06.969Z,100059.22
2023-02-02T17:28:57.411Z,100066.09
2023-02-02T17:31:32.519Z,100077.00
2023-02-02T17:34:15.809Z,100090.03
2023-02-02T17:36:51.832Z,100094.72
2023-02-02T17:39:24.977Z,100089.53
2023-02-02T17:44:36.045Z,100104.94
2023-02-02T17:49:54.047Z,100111.91
2023-02-02T17:52:29.944Z,100118.34
2023-02-02T17:55:01.910Z,100124.50
2023-02-02T17:57:36.287Z,100128.03
2023-02-02T18:02:50.278Z,100123.94
2023-02-02T18:05:22.025Z,100134.22
2023-02-02T18:07:57.575Z,100134.59
2023-02-02T18:10:38.981Z,100150.13
2023-02-02T18:13:22.938Z,100157.88
2023-02-02T18:18:38.255Z,100153.25
2023-02-02T18:21:11.883Z,100157.44
2023-02-02T18:23:49.638Z,100161.12
2023-02-02T18:28:57.161Z,100152.22
2023-02-02T18:31:28.034Z,100152.25
2023-02-02T18:34:05.970Z,100145.19
2023-02-02T18:36:43.007Z,100153.81
2023-02-02T18:44:22.872Z,100153.47
2023-02-02T18:46:52.317Z,100157.69
2023-02-02T18:49:29.016Z,100160.25
2023-02-02T18:52:11.110Z,100154.84
2023-02-02T18:57:28.926Z,100164.47
2023-02-02T18:59:58.359Z,100168.88
2023-02-02T19:02:30.930Z,100164.09
2023-02-02T19:05:20.073Z,100179.19
2023-02-02T19:07:56.094Z,100184.69
2023-02-02T19:10:29.199Z,100185.28
2023-02-02T19:13:00.149Z,100178.88
2023-02-02T19:15:42.180Z,100173.53
2023-02-02T19:18:23.934Z,100177.38
2023-02-02T19:21:05.284Z,100172.03
2023-02-02T19:23:37.671Z,100183.25
2023-02-02T19:26:24.961Z,100181.41
2023-02-02T19:29:19.644Z,100179.66
2023-02-02T19:32:02.921Z,100178.91
2023-02-02T19:34:37.432Z,100174.75
2023-02-02T19:37:29.326Z,100187.50
2023-02-02T19:40:16.861Z,100182.06
2023-02-02T19:42:57.147Z,100191.06
2023-02-02T19:45:33.138Z,100194.22
2023-02-02T19:48:24.932Z,100201.56
2023-02-02T19:51:01.916Z,100213.81
2023-02-02T19:53:40.969Z,100217.75
2023-02-02T19:59:18.941Z,100218.41
2023-02-02T20:01:55.473Z,100227.97
2023-02-02T20:04:36.426Z,100228.94
2023-02-02T20:07:13.173Z,100241.75
2023-02-02T20:09:44.011Z,100230.44
2023-02-02T20:12:22.771Z,100231.25
2023-02-02T20:15:04.179Z,100233.13
2023-02-02T20:17:46.444Z,100246.84
2023-02-02T20:20:41.945Z,100244.06
2023-02-02T20:23:29.877Z,100252.81
2023-02-02T20:26:12.017Z,100257.53
2023-02-02T20:28:45.065Z,100262.31
2023-02-02T20:31:24.309Z,100260.38
2023-02-02T20:33:58.248Z,100266.69
2023-02-02T20:36:50.989Z,100267.63
2023-02-02T20:39:30.088Z,100274.94
2023-02-02T20:42:00.004Z,100276.88
2023-02-02T20:44:30.943Z,100278.28
2023-02-02T20:47:02.900Z,100282.59
2023-02-02T20:49:34.057Z,100282.62
2023-02-02T20:52:08.244Z,100286.12
2023-02-02T20:54:44.698Z,100289.59
2023-02-02T20:57:19.077Z,100293.03
2023-02-02T20:59:47.939Z,100291.28
2023-02-02T21:02:23.168Z,100297.00
2023-02-02T21:04:54.996Z,100306.31
2023-02-02T21:07:24.217Z,100309.53
2023-02-02T21:09:53.226Z,100314.72
2023-02-02T21:12:25.612Z,100309.22
2023-02-02T21:15:04.228Z,100311.44
2023-02-02T21:17:35.090Z,100320.22
2023-02-02T21:20:16.313Z,100326.44
2023-02-02T21:22:57.114Z,100344.28
2023-02-02T21:25:31.895Z,100334.75
2023-02-02T21:28:01.576Z,100332.84
2023-02-02T21:30:36.177Z,100336.16
2023-02-02T21:33:08.129Z,100340.19
2023-02-02T21:35:38.224Z,100338.94
2023-02-02T21:38:13.041Z,100337.06
2023-02-02T21:40:41.566Z,100341.13
2023-02-02T21:43:16.853Z,100346.94
2023-02-02T21:45:51.928Z,100340.62
2023-02-02T21:48:25.043Z,100333.62
2023-02-02T21:50:54.903Z,100343.94
2023-02-02T21:53:29.148Z,100351.44
2023-02-02T21:56:11.722Z,100344.06
2023-02-02T21:58:39.562Z,100355.13
2023-02-02T22:01:26.925Z,100360.84
2023-02-02T22:03:56.931Z,100354.50
2023-02-02T22:06:37.911Z,100358.56
2023-02-02T22:09:13.172Z,100354.72
2023-02-02T22:12:05.908Z,100361.81
2023-02-02T22:14:40.233Z,100361.47
2023-02-02T22:17:14.384Z,100363.44
2023-02-02T22:19:43.936Z,100363.28
2023-02-02T22:22:17.204Z,100356.88
2023-02-02T22:24:59.393Z,100369.72
2023-02-02T22:27:41.302Z,100371.56
2023-02-02T22:30:34.979Z,100377.44
2023-02-02T22:33:10.944Z,100380.94
2023-02-02T22:35:40.123Z,100385.00
2023-02-02T22:38:08.224Z,100392.41
2023-02-02T22:40:36.519Z,100391.75
2023-02-02T22:43:06.805Z,100393.97
2023-02-02T22:45:38.486Z,100398.28
2023-02-02T22:48:13.919Z,100398.94
2023-02-02T22:50:42.870Z,100400.06
2023-02-02T22:53:19.360Z,100404.62
2023-02-02T22:55:47.397Z,100397.47
2023-02-02T22:58:15.463Z,100410.44
2023-02-02T23:00:42.923Z,100421.22
2023-02-02T23:03:10.595Z,100417.75
2023-02-02T23:05:39.278Z,100424.25
2023-02-02T23:08:07.405Z,100420.41
2023-02-02T23:10:37.505Z,100412.16
2023-02-02T23:13:06.090Z,100420.59
2023-02-02T23:15:34.826Z,100427.63
2023-02-02T23:18:03.855Z,100432.47
2023-02-02T23:20:32.222Z,100427.00
2023-02-02T23:22:59.790Z,100436.06
2023-02-02T23:25:27.914Z,100437.66
2023-02-02T23:27:57.193Z,100451.06
2023-02-02T23:30:25.962Z,100454.25
2023-02-02T23:32:53.521Z,100453.00
2023-02-02T23:35:21.938Z,100452.38
2023-02-02T23:37:52.104Z,100454.25
2023-02-02T23:40:20.149Z,100468.47
2023-02-02T23:42:48.580Z,100469.16
2023-02-02T23:45:16.607Z,100478.22
2023-02-02T23:47:44.437Z,100480.63
2023-02-02T23:50:13.916Z,100486.16
2023-02-02T23:52:41.847Z,100486.91
2023-02-02T23:55:09.857Z,100489.53
2023-02-02T23:57:37.900Z,100493.75
